Pagina principale
METAR-TAF:

METAR-TAF

Aeroporti :

Aeroporto di Figari Corsica del Sud

Figari, Francia

latitudine: 41-30N, longitudine: 009-06E, altezza: 26 m

Osservazione

Il bollettino è stato emesso 39 minuti fa, alle 09:30 UTC
Vento 18 kt da nord-est, variando fra nord/nord-est e est
Temperature 13°C
Umidità 58%
Pressione 1015 hPa
Visibilità 10 km o più
nessuna nube inferiore a 1500 m e nessun cumulonembo

METAR: LFKF 180930Z AUTO 05018KT 020V090 CAVOK 13/05 Q1015 BECMG 06015G25KT

Ora: 11:09 (10:09 UTC)

Previsione

Il bollettino è stato emesso 2 ore e 9 minuti fa, alle 08:00 UTC
Previsione valida dal 18 alle 09 UTC al 19 alle 09 UTC
Vento 15 kt da est/nord-est con raffiche fino a 25 kt
Visibilità 10 km o più
Poco nuvoloso ad un'altezza di 4000 ft
Evoluzione graduale
dal 18 alle 14 UTC al 18 alle 16 UTC
Vento 10 kt da est/nord-est

TAF: LFKF 180800Z 1809/1909 06015G25KT 9999 FEW040 BECMG 1814/1816 06010KT

Osservazioni e previsioni meteorologiche di più di 4000 aeroporti (messaggi METAR e TAF).

Le stazioni disponibili sono rappresentate dai dischi gialli e rossi sulla carta.

Puntare il mouse per vedere il nome della stazione.

Clicca sopra per visualizzare le osservazioni e previsioni meteorologiche.

Per cambiare la mappa : fare clic sui pulsanti verdi con una croce nera per ingrandire, il pulsante verde con un trattino per diminuire, o sulla freccia verde per le mappe adiacenti.


METAR-TAF: